Time;durP1;ratioP1;P1;durP2;ratioP2;P2;SDS_P1;SDS_P2;PMS_P1;PMS_P2;Temp;Humidity;BMP_temperature;BMP_pressure;BME280_temperature;BME280_humidity;BME280_pressure;Samples;Min_cycle;Max_cycle;Signal;HPM_P1;HPM_P2
2023/05/04 00:01:44;;;;;;;;;8.00;8.00;;;;;-147.47;100.00;64613.53;5060690;28;45709;-79
2023/05/04 00:04:10;;;;;;;;;8.00;8.00;;;;;-147.47;100.00;64613.53;5037125;28;45567;-79
2023/05/04 00:06:35;;;;;;;;;9.00;8.00;;;;;-147.47;100.00;64613.53;5060538;28;46521;-80
2023/05/04 00:09:01;;;;;;;;;9.33;9.33;;;;;-147.47;100.00;64613.53;5063393;28;45747;-78
2023/05/04 00:11:27;;;;;;;;;13.00;8.67;;;;;-147.47;100.00;64613.53;5034957;28;46089;-80
2023/05/04 00:13:52;;;;;;;;;11.33;10.00;;;;;-147.47;100.00;64613.53;5050065;28;46572;-79
2023/05/04 00:16:18;;;;;;;;;9.00;9.00;;;;;-147.47;100.00;64613.53;5035649;28;47172;-79
2023/05/04 00:18:43;;;;;;;;;16.00;9.67;;;;;-147.47;100.00;64613.53;5056941;28;45559;-80
2023/05/04 00:21:09;;;;;;;;;6.33;6.33;;;;;-147.47;100.00;64613.53;5050137;28;45698;-80
2023/05/04 00:23:34;;;;;;;;;6.67;4.00;;;;;-147.47;100.00;64613.53;5066345;28;45473;-79
2023/05/04 00:25:59;;;;;;;;;9.00;5.00;;;;;-147.47;100.00;64613.53;5058300;28;45831;-79
2023/05/04 00:28:25;;;;;;;;;10.67;8.33;;;;;-147.47;100.00;64613.53;5057849;28;45389;-80
2023/05/04 00:30:54;;;;;;;;;8.00;7.00;;;;;-147.47;100.00;64613.53;5057569;28;45372;-80
2023/05/04 00:33:20;;;;;;;;;4.67;4.67;;;;;-147.47;100.00;64613.53;5067650;28;45601;-80
2023/05/04 00:35:46;;;;;;;;;8.33;8.33;;;;;-147.47;100.00;64613.53;5057728;28;45419;-80
2023/05/04 00:38:12;;;;;;;;;7.33;6.67;;;;;-147.47;100.00;64613.53;5057244;28;45777;-81
2023/05/04 00:40:41;;;;;;;;;9.67;8.00;;;;;-147.47;100.00;64613.53;5040555;28;45844;-80
2023/05/04 00:43:06;;;;;;;;;7.00;7.00;;;;;-147.47;100.00;64613.53;5059942;28;45363;-80
2023/05/04 00:45:32;;;;;;;;;7.33;6.67;;;;;-147.47;100.00;64613.53;5058675;28;47035;-81
2023/05/04 00:47:58;;;;;;;;;9.00;5.33;;;;;-147.47;100.00;64613.53;5055194;28;45681;-80
2023/05/04 00:50:25;;;;;;;;;9.00;9.00;;;;;-147.47;100.00;64613.53;5058993;28;45636;-80
2023/05/04 00:52:54;;;;;;;;;6.67;3.33;;;;;-147.47;100.00;64613.53;5057254;28;45470;-79
2023/05/04 00:55:20;;;;;;;;;7.33;7.33;;;;;-147.47;100.00;64613.53;5054990;28;46562;-79
2023/05/04 00:57:46;;;;;;;;;9.33;8.00;;;;;-147.47;100.00;64613.53;5057301;28;45716;-79
2023/05/04 01:00:12;;;;;;;;;8.33;8.33;;;;;-147.47;100.00;64613.53;5069133;28;45446;-79
2023/05/04 01:02:38;;;;;;;;;10.67;9.00;;;;;-147.47;100.00;64613.53;5067178;28;45715;-80
2023/05/04 01:05:05;;;;;;;;;8.00;7.00;;;;;-147.47;100.00;64613.53;5063156;28;46139;-79
2023/05/04 01:07:54;;;;;;;;;12.00;11.00;;;;;-147.47;100.00;64613.53;5059419;28;45885;-79
2023/05/04 01:10:30;;;;;;;;;7.33;7.00;;;;;-147.47;100.00;64613.53;5057020;28;45386;-80
2023/05/04 01:13:02;;;;;;;;;9.33;9.00;;;;;-147.47;100.00;64613.53;5048937;28;45678;-80
2023/05/04 01:15:29;;;;;;;;;10.67;9.67;;;;;-147.47;100.00;64613.53;5057229;28;46287;-80
2023/05/04 01:17:54;;;;;;;;;7.67;7.00;;;;;-147.47;100.00;64613.53;5050491;28;45494;-79
2023/05/04 01:20:20;;;;;;;;;12.00;7.00;;;;;-147.47;100.00;64613.53;5046553;28;45558;-78
2023/05/04 01:22:45;;;;;;;;;6.33;4.67;;;;;-147.47;100.00;64613.53;5060373;28;45351;-79
2023/05/04 01:25:11;;;;;;;;;11.00;9.67;;;;;-147.47;100.00;64613.53;5056161;28;46767;-78
2023/05/04 01:27:45;;;;;;;;;10.00;8.33;;;;;-147.47;100.00;64613.53;5047634;28;45415;-78
2023/05/04 01:30:27;;;;;;;;;9.33;7.67;;;;;-147.47;100.00;64613.53;5064034;28;45345;-79
2023/05/04 01:32:54;;;;;;;;;7.33;7.33;;;;;-147.47;100.00;64613.53;5059827;28;45770;-79
2023/05/04 01:35:20;;;;;;;;;8.33;7.00;;;;;-147.47;100.00;64613.53;5053577;28;47040;-79
2023/05/04 01:37:46;;;;;;;;;7.33;7.00;;;;;-147.47;100.00;64613.53;5058662;28;45471;-78
2023/05/04 01:40:11;;;;;;;;;6.00;5.00;;;;;-147.47;100.00;64613.53;5056360;28;45307;-81
2023/05/04 01:42:37;;;;;;;;;8.67;7.67;;;;;-147.47;100.00;64613.53;5041492;28;45321;-78
2023/05/04 01:45:02;;;;;;;;;6.67;6.67;;;;;-147.47;100.00;64613.53;5056545;28;46586;-79
2023/05/04 01:47:28;;;;;;;;;8.33;8.33;;;;;-147.47;100.00;64613.53;5037822;28;45281;-79
2023/05/04 01:49:53;;;;;;;;;8.33;6.33;;;;;-147.47;100.00;64613.53;5066264;28;45372;-79
2023/05/04 01:52:19;;;;;;;;;6.33;6.33;;;;;-147.47;100.00;64613.53;5040829;28;45545;-80
2023/05/04 01:54:44;;;;;;;;;10.00;6.67;;;;;-147.47;100.00;64613.53;5072701;28;46198;-80
2023/05/04 01:57:09;;;;;;;;;8.00;8.00;;;;;-147.47;100.00;64613.53;5072608;28;45612;-78
2023/05/04 01:59:35;;;;;;;;;8.00;6.67;;;;;-147.47;100.00;64613.53;5061743;28;46205;-80
2023/05/04 02:02:00;;;;;;;;;12.00;8.00;;;;;-147.47;100.00;64613.53;5054258;28;45961;-79
2023/05/04 02:04:26;;;;;;;;;9.67;9.67;;;;;-147.47;100.00;64613.53;5062639;28;45390;-77
2023/05/04 02:06:52;;;;;;;;;9.00;8.33;;;;;-147.47;100.00;64613.53;5063422;28;45471;-79
2023/05/04 02:09:17;;;;;;;;;7.67;7.67;;;;;-147.47;100.00;64613.53;5042445;28;45525;-80
2023/05/04 02:11:43;;;;;;;;;9.33;8.33;;;;;-147.47;100.00;64613.53;5059120;28;45847;-80
2023/05/04 02:14:09;;;;;;;;;12.33;8.00;;;;;-147.47;100.00;64613.53;5043425;28;48054;-81
2023/05/04 02:16:34;;;;;;;;;8.67;8.67;;;;;-147.47;100.00;64613.53;5056154;28;45542;-80
2023/05/04 02:19:00;;;;;;;;;11.67;9.67;;;;;-147.47;100.00;64613.53;5054843;28;45454;-80
2023/05/04 02:21:25;;;;;;;;;12.67;12.67;;;;;-147.47;100.00;64613.53;5053787;28;45723;-78
2023/05/04 02:23:51;;;;;;;;;8.00;6.67;;;;;-147.47;100.00;64613.53;5053488;28;45649;-78
2023/05/04 02:26:16;;;;;;;;;11.00;8.00;;;;;-147.47;100.00;64613.53;5054348;28;45818;-79
2023/05/04 02:28:42;;;;;;;;;8.67;8.67;;;;;-147.47;100.00;64613.53;5055441;28;45418;-79
2023/05/04 02:31:07;;;;;;;;;13.00;9.67;;;;;-147.47;100.00;64613.53;5054012;28;45477;-80
2023/05/04 02:33:32;;;;;;;;;9.00;9.00;;;;;-147.47;100.00;64613.53;5053849;28;45514;-80
2023/05/04 02:35:58;;;;;;;;;9.67;9.67;;;;;-147.47;100.00;64613.53;5063212;28;45404;-78
2023/05/04 02:38:25;;;;;;;;;12.67;8.67;;;;;-147.47;100.00;64613.53;5062915;28;45499;-80
2023/05/04 02:40:50;;;;;;;;;11.33;11.33;;;;;-147.47;100.00;64613.53;5054269;28;45608;-80
2023/05/04 02:43:16;;;;;;;;;8.00;7.33;;;;;-147.47;100.00;64613.53;5044784;28;46594;-80
2023/05/04 02:45:41;;;;;;;;;8.00;6.33;;;;;-147.47;100.00;64613.53;5054424;28;45393;-78
2023/05/04 02:48:07;;;;;;;;;10.33;9.67;;;;;-147.47;100.00;64613.53;5055429;28;45501;-78
2023/05/04 02:50:32;;;;;;;;;12.00;11.00;;;;;-147.47;100.00;64613.53;5071749;28;46037;-80
2023/05/04 02:52:57;;;;;;;;;12.00;9.00;;;;;-147.47;100.00;64613.53;5059583;28;46834;-81
2023/05/04 02:55:23;;;;;;;;;12.33;10.33;;;;;-147.47;100.00;64613.53;5061451;28;45478;-79
2023/05/04 02:57:48;;;;;;;;;10.33;9.33;;;;;-147.47;100.00;64613.53;5058302;28;45441;-80
2023/05/04 03:00:14;;;;;;;;;12.00;12.00;;;;;-147.47;100.00;64613.53;5054703;28;45364;-80
2023/05/04 03:02:40;;;;;;;;;7.33;7.33;;;;;-147.47;100.00;64613.53;5066234;28;45725;-79
2023/05/04 03:05:06;;;;;;;;;15.00;12.33;;;;;-147.47;100.00;64613.53;5050817;28;45672;-78
2023/05/04 03:07:32;;;;;;;;;12.33;12.33;;;;;-147.47;100.00;64613.53;5055889;28;45780;-78
2023/05/04 03:09:57;;;;;;;;;11.67;10.67;;;;;-147.47;100.00;64613.53;5063037;28;45708;-80
2023/05/04 03:12:23;;;;;;;;;11.67;10.67;;;;;-147.47;100.00;64613.53;5059105;28;45817;-79
2023/05/04 03:14:49;;;;;;;;;15.00;15.00;;;;;-147.47;100.00;64613.53;5072512;28;45471;-81
2023/05/04 03:17:14;;;;;;;;;8.00;8.00;;;;;-147.47;100.00;64613.53;5063076;28;45367;-79
2023/05/04 03:19:40;;;;;;;;;11.00;11.00;;;;;-147.47;100.00;64613.53;5065107;28;45448;-78
2023/05/04 03:22:06;;;;;;;;;13.00;11.67;;;;;-147.47;100.00;64613.53;5059197;28;45799;-80
2023/05/04 03:24:31;;;;;;;;;15.33;12.33;;;;;-147.47;100.00;64613.53;5065914;28;45818;-79
2023/05/04 03:26:56;;;;;;;;;12.00;11.67;;;;;-147.47;100.00;64613.53;5059706;28;45479;-79
2023/05/04 03:29:22;;;;;;;;;19.33;11.00;;;;;-147.47;100.00;64613.53;5070058;28;45724;-79
2023/05/04 03:31:48;;;;;;;;;13.33;11.00;;;;;-147.47;100.00;64613.53;5069854;28;45814;-79
2023/05/04 03:34:13;;;;;;;;;16.33;14.33;;;;;-147.47;100.00;64613.53;5075187;28;45937;-80
2023/05/04 03:36:39;;;;;;;;;15.00;12.00;;;;;-147.47;100.00;64613.53;5041244;28;45527;-80
2023/05/04 03:39:05;;;;;;;;;17.33;14.00;;;;;-147.47;100.00;64613.53;5056903;28;46552;-80
2023/05/04 03:41:30;;;;;;;;;14.00;11.00;;;;;-147.47;100.00;64613.53;5055534;28;45576;-79
2023/05/04 03:43:56;;;;;;;;;16.00;14.00;;;;;-147.47;100.00;64613.53;5058440;28;45293;-81
2023/05/04 03:46:40;;;;;;;;;19.00;13.00;;;;;-147.47;100.00;64613.53;5058875;28;45642;-83
2023/05/04 03:53:18;;;;;;;;;14.00;12.33;;;;;-147.47;100.00;64613.53;5037028;28;45946;-83
2023/05/04 03:55:43;;;;;;;;;15.00;12.67;;;;;-147.47;100.00;64613.53;5036729;28;45623;-81
2023/05/04 03:58:49;;;;;;;;;;;;;;;;;;;;;
2023/05/04 04:01:25;;;;;;;;;12.67;11.67;;;;;-147.47;100.00;64613.53;5025289;28;73629;-81
2023/05/04 04:04:33;;;;;;;;;16.00;12.67;;;;;-147.47;100.00;64613.53;5040532;28;45708;-80
2023/05/04 04:22:03;;;;;;;;;13.67;12.00;;;;;-147.47;100.00;64613.53;4811802;29;45499;-83
2023/05/04 04:25:31;;;;;;;;;;;;;;;;;;;;;
2023/05/04 04:28:51;;;;;;;;;17.67;15.00;;;;;-147.47;100.00;64613.53;4820616;29;73712;-83
2023/05/04 04:53:15;;;;;;;;;;;;;;;;;;;;;
2023/05/04 05:03:45;;;;;;;;;17.00;16.00;;;;;-147.47;100.00;64613.53;4784785;29;45818;-87
2023/05/04 05:06:11;;;;;;;;;18.67;18.67;;;;;-147.47;100.00;64613.53;4870716;29;45469;-86
2023/05/04 05:08:39;;;;;;;;;17.33;14.67;;;;;-147.47;100.00;64613.53;4911089;28;45891;-84
2023/05/04 05:11:34;;;;;;;;;;;;;;;;;;;;;
2023/05/04 05:14:44;;;;;;;;;19.00;17.00;;;;;-147.47;100.00;64613.53;4984017;28;71931;-84
2023/05/04 05:17:10;;;;;;;;;20.00;18.33;;;;;-147.47;100.00;64613.53;4961786;28;45714;-81
2023/05/04 05:19:36;;;;;;;;;17.33;14.33;;;;;-147.47;100.00;64613.53;4977619;28;45567;-82
2023/05/04 05:22:05;;;;;;;;;18.00;17.67;;;;;-147.47;100.00;64613.53;4981397;28;47025;-82
2023/05/04 05:24:31;;;;;;;;;15.67;15.67;;;;;-147.47;100.00;64613.53;4979308;28;45422;-82
2023/05/04 05:26:57;;;;;;;;;13.33;13.00;;;;;-147.47;100.00;64613.53;5027727;28;45466;-82
2023/05/04 05:29:23;;;;;;;;;17.67;16.33;;;;;-147.47;100.00;64613.53;5054475;28;45883;-81
2023/05/04 05:31:49;;;;;;;;;22.00;17.33;;;;;-147.47;100.00;64613.53;5042576;28;46822;-81
2023/05/04 05:34:15;;;;;;;;;23.33;18.67;;;;;-147.47;100.00;64613.53;5051919;28;45471;-83
2023/05/04 05:36:40;;;;;;;;;18.33;16.33;;;;;-147.47;100.00;64613.53;5023780;28;45775;-83
2023/05/04 05:39:05;;;;;;;;;18.67;16.00;;;;;-147.47;100.00;64613.53;5025858;28;45513;-83
2023/05/04 05:41:31;;;;;;;;;14.67;14.67;;;;;-147.47;100.00;64613.53;5057880;28;46824;-85
2023/05/04 05:44:17;;;;;;;;;15.33;10.67;;;;;-147.47;100.00;64613.53;5053385;28;45384;-86
2023/05/04 05:46:42;;;;;;;;;17.67;15.67;;;;;-147.47;100.00;64613.53;5050541;28;45418;-81
2023/05/04 05:49:08;;;;;;;;;14.00;13.00;;;;;-147.47;100.00;64613.53;5053784;28;45265;-81
2023/05/04 05:51:33;;;;;;;;;19.00;13.67;;;;;-147.47;100.00;64613.53;5048069;28;45252;-81
2023/05/04 05:53:59;;;;;;;;;17.00;11.67;;;;;-147.47;100.00;64613.53;5050223;28;45461;-80
2023/05/04 05:56:24;;;;;;;;;13.67;12.33;;;;;-147.47;100.00;64613.53;5054354;28;45342;-82
2023/05/04 05:58:51;;;;;;;;;16.67;11.33;;;;;-147.47;100.00;64613.53;5064084;28;44787;-78
2023/05/04 06:01:17;;;;;;;;;18.33;15.67;;;;;-147.47;100.00;64613.53;5066206;28;46376;-81
2023/05/04 06:03:43;;;;;;;;;11.33;9.33;;;;;-147.47;100.00;64613.53;5051303;28;44833;-80
2023/05/04 06:06:09;;;;;;;;;11.67;10.67;;;;;-147.47;100.00;64613.53;5065049;28;45969;-82
2023/05/04 06:08:36;;;;;;;;;14.00;12.67;;;;;-147.47;100.00;64613.53;5064591;28;44822;-82
2023/05/04 06:11:02;;;;;;;;;14.00;11.67;;;;;-147.47;100.00;64613.53;5029978;28;45811;-81
2023/05/04 06:13:27;;;;;;;;;13.33;13.33;;;;;-147.47;100.00;64613.53;5052368;28;45226;-81
2023/05/04 06:15:53;;;;;;;;;10.00;10.00;;;;;-147.47;100.00;64613.53;5069877;28;44800;-81
2023/05/04 06:18:20;;;;;;;;;16.00;12.33;;;;;-147.47;100.00;64613.53;5069883;28;45674;-81
2023/05/04 06:20:46;;;;;;;;;9.67;9.67;;;;;-147.47;100.00;64613.53;5050733;28;45518;-80
2023/05/04 06:23:13;;;;;;;;;13.67;12.67;;;;;-147.47;100.00;64613.53;5058614;28;45462;-80
2023/05/04 06:25:39;;;;;;;;;13.00;10.33;;;;;-147.47;100.00;64613.53;5053733;28;45748;-79
2023/05/04 06:28:06;;;;;;;;;14.67;11.00;;;;;-147.47;100.00;64613.53;5052640;28;45456;-81
2023/05/04 06:30:32;;;;;;;;;12.00;12.00;;;;;-147.47;100.00;64613.53;5042557;28;46847;-80
2023/05/04 06:32:57;;;;;;;;;10.00;7.33;;;;;-147.47;100.00;64613.53;5050763;28;45802;-81
2023/05/04 06:35:23;;;;;;;;;12.33;11.00;;;;;-147.47;100.00;64613.53;5037257;28;45688;-84
2023/05/04 06:37:48;;;;;;;;;15.33;10.00;;;;;-147.47;100.00;64613.53;5027826;28;46246;-80
2023/05/04 06:40:14;;;;;;;;;9.00;7.33;;;;;-147.47;100.00;64613.53;5022871;28;46134;-83
2023/05/04 06:42:40;;;;;;;;;13.00;11.33;;;;;-147.47;100.00;64613.53;5058246;28;45501;-80
2023/05/04 06:45:06;;;;;;;;;11.33;9.33;;;;;-147.47;100.00;64613.53;5055480;28;45850;-79
2023/05/04 06:47:35;;;;;;;;;14.00;12.33;;;;;-147.47;100.00;64613.53;5039453;28;45854;-79
2023/05/04 06:50:00;;;;;;;;;15.00;13.67;;;;;-147.47;100.00;64613.53;5050281;28;46576;-79
2023/05/04 06:52:28;;;;;;;;;9.50;9.50;;;;;-147.47;100.00;64613.53;5051904;28;45848;-80
2023/05/04 06:54:54;;;;;;;;;15.67;11.67;;;;;-147.47;100.00;64613.53;5042365;28;46634;-79
2023/05/04 06:57:19;;;;;;;;;11.75;10.00;;;;;-147.47;100.00;64613.53;5054581;28;45470;-77
2023/05/04 06:59:45;;;;;;;;;10.67;10.33;;;;;-147.47;100.00;64613.53;5027702;28;46823;-77
2023/05/04 07:02:10;;;;;;;;;15.00;11.25;;;;;-147.47;100.00;64613.53;5024025;28;45702;-79
2023/05/04 07:04:36;;;;;;;;;12.25;10.00;;;;;-147.47;100.00;64613.53;5048613;28;45679;-80
2023/05/04 07:07:02;;;;;;;;;8.00;7.33;;;;;-147.47;100.00;64613.53;5041353;28;45534;-77
2023/05/04 07:09:27;;;;;;;;;9.67;9.67;;;;;-147.47;100.00;64613.53;5041924;28;47035;-79
2023/05/04 07:11:53;;;;;;;;;14.00;13.00;;;;;-147.47;100.00;64613.53;5040244;28;45985;-81
2023/05/04 07:14:18;;;;;;;;;14.67;13.67;;;;;-147.47;100.00;64613.53;5031498;28;45566;-80
2023/05/04 07:16:44;;;;;;;;;11.33;11.33;;;;;-147.47;100.00;64613.53;5036311;28;46673;-79
2023/05/04 07:19:09;;;;;;;;;14.33;9.33;;;;;-147.47;100.00;64613.53;5036372;28;46331;-80
2023/05/04 07:21:35;;;;;;;;;10.33;10.33;;;;;-147.47;100.00;64613.53;5038855;28;45838;-77
2023/05/04 07:24:00;;;;;;;;;15.33;14.00;;;;;-147.47;100.00;64613.53;5022383;28;45769;-81
2023/05/04 07:26:26;;;;;;;;;12.00;9.00;;;;;-147.47;100.00;64613.53;5037864;28;45821;-81
2023/05/04 07:28:51;;;;;;;;;10.00;10.00;;;;;-147.47;100.00;64613.53;5033608;28;47191;-78
2023/05/04 07:31:16;;;;;;;;;8.00;8.00;;;;;-147.47;100.00;64613.53;5044607;28;45777;-80
2023/05/04 07:33:42;;;;;;;;;8.75;8.75;;;;;-147.47;100.00;64613.53;5047266;28;45711;-80
2023/05/04 07:36:07;;;;;;;;;11.25;10.25;;;;;-147.47;100.00;64613.53;5034129;28;45746;-79
2023/05/04 07:38:33;;;;;;;;;7.25;6.25;;;;;-147.47;100.00;64613.53;5036017;28;46303;-79
2023/05/04 07:40:59;;;;;;;;;10.75;9.75;;;;;-147.47;100.00;64613.53;5039316;28;45729;-81
2023/05/04 07:43:24;;;;;;;;;9.25;8.50;;;;;-147.47;100.00;64613.53;5037976;28;45903;-81
2023/05/04 07:45:52;;;;;;;;;11.50;8.25;;;;;-147.47;100.00;64613.53;5037594;28;45331;-81
2023/05/04 07:48:18;;;;;;;;;10.00;8.25;;;;;-147.47;100.00;64613.53;5033737;28;45807;-81
2023/05/04 07:50:44;;;;;;;;;11.25;9.50;;;;;-147.47;100.00;64613.53;5022294;28;45836;-80
2023/05/04 07:53:09;;;;;;;;;9.25;9.25;;;;;-147.47;100.00;64613.53;5049241;28;45426;-81
2023/05/04 07:55:35;;;;;;;;;9.00;9.00;;;;;-147.47;100.00;64613.53;5037529;28;45449;-80
2023/05/04 07:58:01;;;;;;;;;9.25;8.75;;;;;-147.47;100.00;64613.53;5032026;28;46595;-84
2023/05/04 08:00:27;;;;;;;;;10.00;8.75;;;;;-147.47;100.00;64613.53;5043205;28;45863;-80
2023/05/04 08:02:52;;;;;;;;;10.50;9.25;;;;;-147.47;100.00;64613.53;5062424;28;45671;-80
2023/05/04 08:05:17;;;;;;;;;7.25;6.00;;;;;-147.47;100.00;64613.53;5056084;28;45804;-81
2023/05/04 08:07:43;;;;;;;;;8.25;8.25;;;;;-147.47;100.00;64613.53;5054717;28;46307;-82
2023/05/04 08:10:09;;;;;;;;;9.50;9.50;;;;;-147.47;100.00;64613.53;5051332;28;45418;-81
2023/05/04 08:12:36;;;;;;;;;8.75;7.75;;;;;-147.47;100.00;64613.53;5049576;28;45446;-79
2023/05/04 08:15:03;;;;;;;;;10.00;10.00;;;;;-147.47;100.00;64613.53;5048752;28;45795;-81
2023/05/04 08:17:28;;;;;;;;;11.50;10.00;;;;;-147.47;100.00;64613.53;5052411;28;48335;-82
2023/05/04 08:19:54;;;;;;;;;10.75;9.75;;;;;-147.47;100.00;64613.53;5056734;28;46115;-80
2023/05/04 08:22:20;;;;;;;;;9.00;8.00;;;;;-147.47;100.00;64613.53;5055772;28;46387;-81
2023/05/04 08:24:46;;;;;;;;;8.25;7.75;;;;;-147.47;100.00;64613.53;5052104;28;45506;-81
2023/05/04 08:27:14;;;;;;;;;9.25;9.25;;;;;-147.47;100.00;64613.53;5065378;28;45741;-81
2023/05/04 08:29:40;;;;;;;;;11.25;9.00;;;;;-147.47;100.00;64613.53;5069681;28;45228;-79
2023/05/04 08:32:07;;;;;;;;;8.50;8.50;;;;;-147.47;100.00;64613.53;5054198;28;45727;-82
2023/05/04 08:34:32;;;;;;;;;10.25;10.25;;;;;-147.47;100.00;64613.53;5067100;28;45651;-81
2023/05/04 08:36:57;;;;;;;;;13.50;12.00;;;;;-147.47;100.00;64613.53;5042971;28;47421;-81
2023/05/04 08:39:24;;;;;;;;;10.25;6.75;;;;;-147.47;100.00;64613.53;5063755;28;46051;-79
2023/05/04 08:41:50;;;;;;;;;10.25;8.75;;;;;-147.47;100.00;64613.53;5052080;28;45478;-81
2023/05/04 08:44:16;;;;;;;;;10.50;7.00;;;;;-147.47;100.00;64613.53;5056077;28;45517;-79
2023/05/04 08:46:42;;;;;;;;;13.00;10.00;;;;;-147.47;100.00;64613.53;5064803;28;45681;-79
2023/05/04 08:49:09;;;;;;;;;12.00;10.00;;;;;-147.47;100.00;64613.53;5055656;28;45465;-80
2023/05/04 08:51:38;;;;;;;;;13.25;11.00;;;;;-147.47;100.00;64613.53;5054339;28;45785;-80
2023/05/04 08:54:12;;;;;;;;;10.00;10.00;;;;;-147.47;100.00;64613.53;5054730;28;45899;-80
2023/05/04 08:56:39;;;;;;;;;11.75;10.50;;;;;-147.47;100.00;64613.53;5054212;28;46204;-79
2023/05/04 08:59:06;;;;;;;;;9.25;9.25;;;;;-147.47;100.00;64613.53;5052799;28;45696;-79
2023/05/04 09:01:33;;;;;;;;;11.75;10.00;;;;;-147.47;100.00;64613.53;5054889;28;45934;-79
2023/05/04 09:04:04;;;;;;;;;10.50;7.25;;;;;-147.47;100.00;64613.53;5057650;28;45517;-82
2023/05/04 09:06:30;;;;;;;;;9.75;9.75;;;;;-147.47;100.00;64613.53;5045310;28;46134;-81
2023/05/04 09:08:56;;;;;;;;;7.00;7.00;;;;;-147.47;100.00;64613.53;5051656;28;45711;-82
2023/05/04 09:11:22;;;;;;;;;9.00;7.50;;;;;-147.47;100.00;64613.53;5051580;28;45902;-75
2023/05/04 09:13:47;;;;;;;;;9.00;9.00;;;;;-147.47;100.00;64613.53;5051580;28;46153;-75
2023/05/04 09:16:15;;;;;;;;;11.50;9.50;;;;;-147.47;100.00;64613.53;5049916;28;46042;-74
2023/05/04 09:19:19;;;;;;;;;10.00;10.00;;;;;-147.47;100.00;64613.53;5048630;28;45662;-86
2023/05/04 09:21:51;;;;;;;;;11.50;10.25;;;;;-147.47;100.00;64613.53;5053658;28;45612;-83
2023/05/04 09:24:29;;;;;;;;;9.75;8.00;;;;;-147.47;100.00;64613.53;5057479;28;45439;-77
2023/05/04 09:27:06;;;;;;;;;11.75;10.75;;;;;-147.47;100.00;64613.53;5039188;28;46270;-80
2023/05/04 09:29:42;;;;;;;;;11.00;9.25;;;;;-147.47;100.00;64613.53;5054013;28;45982;-85
2023/05/04 09:32:13;;;;;;;;;9.75;9.75;;;;;-147.47;100.00;64613.53;5034923;28;45778;-76
2023/05/04 09:34:47;;;;;;;;;8.00;6.75;;;;;-147.47;100.00;64613.53;5051278;28;45667;-76
2023/05/04 09:37:13;;;;;;;;;8.75;8.75;;;;;-147.47;100.00;64613.53;5049383;28;45842;-74
2023/05/04 09:39:50;;;;;;;;;8.00;8.00;;;;;-147.47;100.00;64613.53;5030857;28;45737;-75
2023/05/04 09:42:17;;;;;;;;;10.67;10.33;;;;;-147.47;100.00;64613.53;5033502;28;45724;-75
2023/05/04 09:44:43;;;;;;;;;8.00;8.00;;;;;-147.47;100.00;64613.53;5051101;28;45566;-76
2023/05/04 09:47:09;;;;;;;;;8.33;8.33;;;;;-147.47;100.00;64613.53;5048572;28;45402;-76
2023/05/04 09:49:36;;;;;;;;;8.25;7.25;;;;;-147.47;100.00;64613.53;5043586;28;45758;-76
2023/05/04 09:52:03;;;;;;;;;7.25;7.25;;;;;-147.47;100.00;64613.53;5052698;28;45641;-77
2023/05/04 09:54:34;;;;;;;;;8.75;8.00;;;;;-147.47;100.00;64613.53;5029989;28;45814;-75
2023/05/04 09:57:10;;;;;;;;;13.75;12.75;;;;;-147.47;100.00;64613.53;5049500;28;46001;-75
2023/05/04 09:59:36;;;;;;;;;8.25;8.25;;;;;-147.47;100.00;64613.53;5024746;28;45550;-75
2023/05/04 10:02:03;;;;;;;;;7.25;7.25;;;;;-147.47;100.00;64613.53;5040172;28;45520;-75
2023/05/04 10:04:32;;;;;;;;;8.00;7.75;;;;;-147.47;100.00;64613.53;5034986;28;45760;-74
2023/05/04 10:06:59;;;;;;;;;9.25;7.75;;;;;-147.47;100.00;64613.53;5045955;28;45482;-75
2023/05/04 10:09:28;;;;;;;;;10.00;10.00;;;;;-147.47;100.00;64613.53;5044331;28;45782;-77
2023/05/04 10:11:57;;;;;;;;;8.25;8.25;;;;;-147.47;100.00;64613.53;5039130;28;45507;-74
2023/05/04 10:14:23;;;;;;;;;11.25;8.00;;;;;-147.47;100.00;64613.53;5032158;28;45599;-76
2023/05/04 10:17:07;;;;;;;;;9.25;9.25;;;;;-147.47;100.00;64613.53;5030504;28;45544;-77
2023/05/04 10:19:59;;;;;;;;;7.75;6.75;;;;;-147.47;100.00;64613.53;5030511;28;45714;-76
2023/05/04 10:22:52;;;;;;;;;11.50;10.75;;;;;-147.47;100.00;64613.53;4993085;28;45819;-77
2023/05/04 10:25:47;;;;;;;;;7.75;7.50;;;;;-147.47;100.00;64613.53;5013332;28;46131;-79
2023/05/04 10:28:36;;;;;;;;;9.25;8.25;;;;;-147.47;100.00;64613.53;5030536;28;46418;-76
2023/05/04 10:31:03;;;;;;;;;8.00;8.00;;;;;-147.47;100.00;64613.53;5027781;28;45690;-77
2023/05/04 10:33:41;;;;;;;;;7.00;7.00;;;;;-147.47;100.00;64613.53;5011740;28;45578;-76
2023/05/04 10:36:09;;;;;;;;;10.25;9.50;;;;;-147.47;100.00;64613.53;5029438;28;45671;-75
2023/05/04 10:38:35;;;;;;;;;7.25;7.25;;;;;-147.47;100.00;64613.53;5031113;28;45774;-75
2023/05/04 10:41:21;;;;;;;;;10.50;8.50;;;;;-147.47;100.00;64613.53;5029921;28;45388;-76
2023/05/04 10:43:52;;;;;;;;;7.75;7.75;;;;;-147.47;100.00;64613.53;5010471;28;45500;-76
2023/05/04 10:46:22;;;;;;;;;7.00;7.00;;;;;-147.47;100.00;64613.53;5031107;28;45501;-76
2023/05/04 10:48:48;;;;;;;;;7.50;5.50;;;;;-147.47;100.00;64613.53;5030758;28;46045;-77
2023/05/04 10:51:24;;;;;;;;;6.50;5.50;;;;;-147.47;100.00;64613.53;5031251;28;45460;-76
2023/05/04 10:53:50;;;;;;;;;6.25;6.25;;;;;-147.47;100.00;64613.53;5011647;28;45999;-74
2023/05/04 10:56:25;;;;;;;;;7.25;7.25;;;;;-147.47;100.00;64613.53;5031262;28;45568;-76
2023/05/04 10:58:52;;;;;;;;;9.00;9.00;;;;;-147.47;100.00;64613.53;5035603;28;45460;-74
2023/05/04 11:01:19;;;;;;;;;7.50;7.50;;;;;-147.47;100.00;64613.53;5050110;28;45414;-76
2023/05/04 11:03:54;;;;;;;;;7.00;7.00;;;;;-147.47;100.00;64613.53;5022660;28;45352;-74
2023/05/04 11:06:22;;;;;;;;;10.25;7.50;;;;;-147.47;100.00;64613.53;5031940;28;47116;-77
2023/05/04 11:08:58;;;;;;;;;6.25;6.25;;;;;-147.47;100.00;64613.53;5033106;28;45798;-76
2023/05/04 11:11:23;;;;;;;;;6.00;6.00;;;;;-147.47;100.00;64613.53;5033512;28;45814;-76
2023/05/04 11:13:49;;;;;;;;;9.50;8.50;;;;;-147.47;100.00;64613.53;5031423;28;46056;-74
2023/05/04 11:16:25;;;;;;;;;10.25;8.75;;;;;-147.47;100.00;64613.53;5041015;28;45619;-75
2023/05/04 11:18:52;;;;;;;;;9.33;8.33;;;;;-147.47;100.00;64613.53;5031999;28;45494;-77
2023/05/04 11:21:25;;;;;;;;;7.50;7.50;;;;;-147.47;100.00;64613.53;5033751;28;45400;-75
2023/05/04 11:23:55;;;;;;;;;6.75;6.00;;;;;-147.47;100.00;64613.53;5033722;28;45517;-82
2023/05/04 11:26:20;;;;;;;;;6.00;4.75;;;;;-147.47;100.00;64613.53;5035899;28;45561;-76
2023/05/04 11:28:46;;;;;;;;;7.33;6.33;;;;;-147.47;100.00;64613.53;5036745;28;46040;-75
2023/05/04 11:31:12;;;;;;;;;11.00;8.75;;;;;-147.47;100.00;64613.53;5032968;28;45568;-74
2023/05/04 11:33:45;;;;;;;;;6.50;6.50;;;;;-147.47;100.00;64613.53;5036121;28;45898;-75
2023/05/04 11:36:10;;;;;;;;;6.50;6.00;;;;;-147.47;100.00;64613.53;5033227;28;46495;-76
2023/05/04 11:38:36;;;;;;;;;6.50;6.50;;;;;-147.47;100.00;64613.53;5035458;28;45465;-75
2023/05/04 11:41:02;;;;;;;;;8.75;8.50;;;;;-147.47;100.00;64613.53;5035021;28;45577;-75
2023/05/04 11:43:27;;;;;;;;;8.00;6.50;;;;;-147.47;100.00;64613.53;5036578;28;45624;-74
2023/05/04 11:45:54;;;;;;;;;7.00;7.00;;;;;-147.47;100.00;64613.53;5036206;28;45863;-75
2023/05/04 11:48:20;;;;;;;;;7.00;7.00;;;;;-147.47;100.00;64613.53;5007313;28;46299;-82
2023/05/04 11:50:46;;;;;;;;;8.00;6.00;;;;;-147.47;100.00;64613.53;5048204;28;45491;-84
2023/05/04 11:53:12;;;;;;;;;7.75;6.75;;;;;-147.47;100.00;64613.53;5048512;28;45449;-83
2023/05/04 11:55:39;;;;;;;;;5.00;5.00;;;;;-147.47;100.00;64613.53;5050072;28;45484;-82
2023/05/04 11:58:07;;;;;;;;;10.00;7.50;;;;;-147.47;100.00;64613.53;5059357;28;45293;-87
2023/05/04 12:00:47;;;;;;;;;7.33;7.00;;;;;-147.47;100.00;64613.53;5046999;28;45689;-80
2023/05/04 12:03:15;;;;;;;;;7.00;7.00;;;;;-147.47;100.00;64613.53;5054190;28;45871;-83